Parchment, Michigan
Current Conditions -  °F | °C
As of 10:53 AM on Sunday 25 Jan 2015 (Local Time) from KAZO Reporting Station
Light Snow Light Snow  
Wind Chill: 16°   Ceiling: 2100
Heat Index: 26°   Visibility: 1.2mi
Dew Point: 20°   Wind: 10mph
Humidity: 78%   Direction: 60°ENE
Pressure: 29.84"   Gusts: 18mph
Location:  42.3411°N, 85.532°W
Report Text: KAZO 251553Z 06009G16KT 1 1/4SM -SN OVC021 M03/M07 A2984 RMK AO2 SLP114 P0000 T10331067 $
Loading
Personal Weather Stations






























Interactive Weather Map New forecast layout! Learn more

10-Day Weather Forecast

Advertisements
Track Severe Weather on mobile